createdAt,value
2019-04-28T00:00:51.024Z,0.00
2019-04-28T00:01:51.296Z,0.00
2019-04-28T00:02:50.759Z,0.00
2019-04-28T00:03:51.579Z,0.00
2019-04-28T00:04:51.455Z,0.00
2019-04-28T00:05:51.358Z,0.00
2019-04-28T00:06:51.507Z,0.00
2019-04-28T00:07:50.555Z,0.00
2019-04-28T00:08:51.707Z,0.00
2019-04-28T00:09:51.128Z,0.00
2019-04-28T00:10:53.135Z,0.00
2019-04-28T00:11:51.669Z,0.00
2019-04-28T00:12:51.106Z,0.00
2019-04-28T00:13:53.223Z,0.00
2019-04-28T00:14:51.547Z,0.00
2019-04-28T00:15:51.629Z,0.00
2019-04-28T00:16:51.212Z,0.00
2019-04-28T00:17:51.538Z,0.00
2019-04-28T00:18:51.068Z,0.00
2019-04-28T00:19:51.485Z,0.00
2019-04-28T00:20:50.978Z,0.00
2019-04-28T00:21:51.551Z,0.00
2019-04-28T00:22:51.511Z,0.00
2019-04-28T00:23:51.224Z,0.00
2019-04-28T00:24:51.463Z,0.00
2019-04-28T00:25:51.431Z,0.00
2019-04-28T00:26:49.815Z,0.00
2019-04-28T00:27:51.571Z,0.00
2019-04-28T00:28:51.348Z,0.00
2019-04-28T00:29:51.776Z,0.00
2019-04-28T00:30:51.619Z,0.00
2019-04-28T00:31:51.304Z,0.00
2019-04-28T00:32:49.727Z,0.00
2019-04-28T00:33:51.465Z,0.00
2019-04-28T00:34:51.169Z,0.00
2019-04-28T00:35:51.477Z,0.00
2019-04-28T00:36:51.225Z,0.00
2019-04-28T00:37:49.670Z,0.00
2019-04-28T00:38:51.412Z,0.00
2019-04-28T00:39:50.984Z,0.00
2019-04-28T00:40:51.151Z,0.00
2019-04-28T00:41:51.641Z,0.00
2019-04-28T00:42:51.177Z,0.00
2019-04-28T00:43:49.625Z,0.00
2019-04-28T00:44:51.433Z,0.00
2019-04-28T00:45:51.217Z,0.00
2019-04-28T00:46:51.202Z,0.00
2019-04-28T00:47:51.015Z,0.00
2019-04-28T00:48:50.855Z,0.00
2019-04-28T00:49:49.559Z,0.00
2019-04-28T00:50:51.560Z,0.00
2019-04-28T00:51:50.903Z,0.00
2019-04-28T00:52:49.555Z,0.00
2019-04-28T00:53:50.907Z,0.00
2019-04-28T00:54:49.480Z,0.00
2019-04-28T00:55:49.467Z,0.00
2019-04-28T00:56:49.455Z,0.00
2019-04-28T00:57:50.946Z,0.00
2019-04-28T00:58:49.454Z,0.00
2019-04-28T00:59:55.120Z,0.00
2019-04-28T01:00:51.353Z,0.00
2019-04-28T01:01:51.220Z,0.00
2019-04-28T01:02:50.957Z,0.00
2019-04-28T01:03:49.399Z,0.00
2019-04-28T01:04:51.316Z,0.00
2019-04-28T01:05:50.840Z,0.00
2019-04-28T01:06:49.340Z,0.00
2019-04-28T01:07:51.056Z,0.00
2019-04-28T01:08:49.320Z,0.00
2019-04-28T01:09:51.501Z,0.00
2019-04-28T01:10:50.811Z,0.00
2019-04-28T01:11:51.129Z,0.00
2019-04-28T01:12:50.968Z,0.00
2019-04-28T01:13:49.261Z,0.00
2019-04-28T01:14:49.786Z,0.00
2019-04-28T01:15:49.687Z,0.00
2019-04-28T01:16:49.812Z,0.00
2019-04-28T01:17:49.678Z,0.00
2019-04-28T01:18:50.186Z,0.00
2019-04-28T01:19:49.877Z,0.00
2019-04-28T01:20:49.619Z,0.00
2019-04-28T01:21:50.231Z,0.00
2019-04-28T01:22:49.647Z,0.00
2019-04-28T01:23:50.121Z,0.00
2019-04-28T01:24:49.802Z,0.00
2019-04-28T01:25:50.078Z,0.00
2019-04-28T01:26:50.829Z,0.00
2019-04-28T01:27:50.538Z,0.00
2019-04-28T01:28:49.676Z,0.00
2019-04-28T01:29:49.835Z,0.00
2019-04-28T01:30:50.032Z,0.00
2019-04-28T01:31:49.459Z,0.00
2019-04-28T01:32:49.799Z,0.00
2019-04-28T01:33:50.149Z,0.00
2019-04-28T01:34:49.874Z,0.00
2019-04-28T01:35:49.434Z,0.00
2019-04-28T01:36:49.583Z,0.00
2019-04-28T01:37:50.533Z,0.00
2019-04-28T01:38:50.060Z,0.00
2019-04-28T01:39:49.617Z,0.00
2019-04-28T01:40:49.957Z,0.00
2019-04-28T01:41:49.651Z,0.00
2019-04-28T01:42:49.968Z,0.00
2019-04-28T01:43:48.925Z,0.00
2019-04-28T01:44:49.508Z,0.00
2019-04-28T01:45:50.295Z,0.00
2019-04-28T01:46:49.644Z,0.00
2019-04-28T01:47:50.403Z,0.00
2019-04-28T01:48:49.765Z,0.00
2019-04-28T01:49:50.151Z,0.00
2019-04-28T01:50:49.972Z,0.00
2019-04-28T01:51:50.265Z,0.00
2019-04-28T01:52:49.649Z,0.00
2019-04-28T01:53:50.466Z,0.00
2019-04-28T01:54:50.195Z,0.00
2019-04-28T01:55:49.522Z,0.00
2019-04-28T01:56:50.249Z,0.00
2019-04-28T01:57:49.780Z,0.00
2019-04-28T01:58:49.952Z,0.00
2019-04-28T01:59:49.993Z,0.00
2019-04-28T02:00:50.382Z,0.00
2019-04-28T02:01:49.894Z,0.00
2019-04-28T02:02:50.469Z,0.00
2019-04-28T02:03:50.261Z,0.00
2019-04-28T02:04:49.885Z,0.00
2019-04-28T02:05:50.152Z,0.00
2019-04-28T02:06:49.751Z,0.00
2019-04-28T02:07:50.500Z,0.00
2019-04-28T02:08:51.135Z,0.00
2019-04-28T02:09:49.502Z,0.00
2019-04-28T02:10:50.165Z,0.00
2019-04-28T02:11:49.796Z,0.00
2019-04-28T02:12:50.361Z,0.00
2019-04-28T02:13:49.680Z,0.00
2019-04-28T02:14:49.998Z,0.00
2019-04-28T02:15:50.127Z,0.00
2019-04-28T02:16:50.303Z,0.00
2019-04-28T02:17:51.360Z,0.00
2019-04-28T02:18:49.702Z,0.00
2019-04-28T02:19:48.521Z,0.00
2019-04-28T02:20:49.341Z,0.00
2019-04-28T02:21:49.535Z,0.00
2019-04-28T02:22:50.079Z,0.00
2019-04-28T02:23:49.302Z,0.00
2019-04-28T02:24:50.383Z,0.00
2019-04-28T02:25:49.786Z,0.00
2019-04-28T02:26:52.266Z,0.00
2019-04-28T02:27:49.940Z,0.00
2019-04-28T02:28:50.318Z,0.00
2019-04-28T02:29:49.943Z,0.00
2019-04-28T02:30:52.717Z,0.00
2019-04-28T02:31:51.052Z,0.00
2019-04-28T02:32:51.483Z,0.00
2019-04-28T02:33:50.923Z,0.00
2019-04-28T02:34:50.678Z,0.00
2019-04-28T02:35:50.954Z,0.00
2019-04-28T02:36:50.646Z,0.00
2019-04-28T02:37:50.380Z,0.00
2019-04-28T02:38:51.134Z,0.00
2019-04-28T02:39:49.866Z,0.00
2019-04-28T02:40:50.448Z,0.00
2019-04-28T02:41:50.916Z,0.00
2019-04-28T02:42:48.291Z,0.00
2019-04-28T02:43:50.855Z,0.00
2019-04-28T02:44:50.440Z,0.00
2019-04-28T02:45:53.049Z,0.00
2019-04-28T02:46:50.704Z,0.00
2019-04-28T02:47:48.235Z,0.00
2019-04-28T02:48:50.816Z,0.00
2019-04-28T02:49:50.395Z,0.00
2019-04-28T02:50:50.817Z,0.00
2019-04-28T02:51:50.580Z,0.00
2019-04-28T02:52:48.154Z,0.00
2019-04-28T02:53:50.882Z,0.00
2019-04-28T02:54:50.698Z,0.00
2019-04-28T02:55:48.118Z,0.00
2019-04-28T02:56:50.599Z,0.00
2019-04-28T02:57:48.097Z,0.00
2019-04-28T02:58:50.839Z,0.00
2019-04-28T02:59:50.978Z,0.00
2019-04-28T03:01:04.912Z,0.00
2019-04-28T03:01:50.885Z,0.00
2019-04-28T03:02:48.054Z,0.00
2019-04-28T03:03:50.509Z,0.00
2019-04-28T03:04:50.650Z,0.00
2019-04-28T03:05:51.026Z,0.00
2019-04-28T03:06:47.998Z,0.00
2019-04-28T03:07:47.983Z,0.00
2019-04-28T03:08:50.416Z,0.00
2019-04-28T03:09:47.962Z,0.00
2019-04-28T03:10:50.734Z,0.00
2019-04-28T03:11:47.942Z,0.00
2019-04-28T03:12:47.931Z,0.00
2019-04-28T03:13:50.807Z,0.00
2019-04-28T03:14:50.428Z,0.00
2019-04-28T03:15:47.921Z,0.00
2019-04-28T03:16:50.802Z,0.00
2019-04-28T03:17:52.512Z,0.00
2019-04-28T03:18:51.334Z,0.00
2019-04-28T03:19:51.330Z,0.00
2019-04-28T03:20:47.842Z,0.00
2019-04-28T03:21:47.828Z,0.00
2019-04-28T03:22:50.803Z,0.00
2019-04-28T03:23:47.806Z,0.00
2019-04-28T03:24:47.820Z,0.00
2019-04-28T03:25:50.483Z,0.00
2019-04-28T03:26:47.776Z,0.00
2019-04-28T03:27:50.746Z,0.00
2019-04-28T03:28:47.750Z,0.00
2019-04-28T03:29:50.446Z,0.00
2019-04-28T03:30:47.761Z,0.00
2019-04-28T03:32:13.635Z,0.00
2019-04-28T03:32:55.388Z,0.00
2019-04-28T03:33:54.800Z,0.00
2019-04-28T03:34:53.165Z,0.00
2019-04-28T03:35:53.097Z,4.00
2019-04-28T03:36:48.663Z,0.00
2019-04-28T03:37:47.648Z,0.00
2019-04-28T03:38:47.640Z,4.00
2019-04-28T03:39:50.200Z,4.00
2019-04-28T03:40:47.633Z,4.00
2019-04-28T03:41:50.054Z,4.00
2019-04-28T03:42:47.611Z,8.00
2019-04-28T03:43:50.986Z,8.00
2019-04-28T03:44:47.570Z,8.00
2019-04-28T03:45:47.560Z,12.00
2019-04-28T03:46:47.546Z,12.00
2019-04-28T03:47:50.716Z,16.00
2019-04-28T03:48:47.525Z,16.00
2019-04-28T03:49:50.267Z,20.00
2019-04-28T03:50:47.504Z,28.00
2019-04-28T03:51:47.523Z,28.00
2019-04-28T03:52:47.484Z,36.00
2019-04-28T03:53:47.476Z,40.00
2019-04-28T03:54:47.458Z,44.00
2019-04-28T03:55:47.452Z,48.00
2019-04-28T03:56:47.450Z,48.00
2019-04-28T03:57:47.449Z,52.00
2019-04-28T03:58:47.423Z,56.00
2019-04-28T03:59:47.404Z,64.00
2019-04-28T04:00:47.398Z,68.00
2019-04-28T04:01:56.662Z,76.00
2019-04-28T04:02:50.694Z,84.00
2019-04-28T04:03:47.360Z,92.00
2019-04-28T04:04:47.348Z,96.00
2019-04-28T04:05:47.335Z,104.00
2019-04-28T04:06:47.326Z,116.00
2019-04-28T04:07:47.342Z,120.00
2019-04-28T04:08:47.325Z,124.00
2019-04-28T04:09:47.295Z,132.00
2019-04-28T04:10:47.285Z,136.00
2019-04-28T04:11:47.269Z,140.00
2019-04-28T04:12:47.257Z,144.00
2019-04-28T04:13:47.272Z,144.00
2019-04-28T04:14:47.238Z,152.00
2019-04-28T04:15:50.577Z,152.00
2019-04-28T04:16:50.299Z,152.00
2019-04-28T04:17:47.202Z,160.00
2019-04-28T04:18:47.213Z,164.00
2019-04-28T04:19:47.178Z,172.00
2019-04-28T04:20:47.170Z,176.00
2019-04-28T04:21:47.157Z,184.00
2019-04-28T04:22:47.147Z,196.00
2019-04-28T04:23:47.156Z,208.00
2019-04-28T04:24:47.143Z,224.00
2019-04-28T04:25:47.113Z,240.00
2019-04-28T04:26:47.100Z,256.00
2019-04-28T04:27:47.093Z,272.00
2019-04-28T04:28:47.093Z,284.00
2019-04-28T04:29:47.084Z,300.00
2019-04-28T04:30:47.084Z,316.00
2019-04-28T04:31:47.044Z,324.00
2019-04-28T04:32:47.035Z,336.00
2019-04-28T04:33:47.030Z,344.00
2019-04-28T04:34:47.155Z,356.00
2019-04-28T04:35:47.003Z,364.00
2019-04-28T04:36:46.990Z,368.00
2019-04-28T04:37:46.979Z,368.00
2019-04-28T04:38:46.982Z,372.00
2019-04-28T04:39:46.955Z,372.00
2019-04-28T04:40:46.958Z,380.00
2019-04-28T04:41:46.959Z,392.00
2019-04-28T04:42:46.933Z,408.00
2019-04-28T04:43:46.912Z,420.00
2019-04-28T04:44:46.902Z,424.00
2019-04-28T04:45:46.892Z,432.00
2019-04-28T04:46:46.900Z,436.00
2019-04-28T04:47:46.874Z,436.00
2019-04-28T04:48:46.861Z,448.00
2019-04-28T04:49:46.843Z,460.00
2019-04-28T04:50:46.867Z,472.00
2019-04-28T04:51:46.820Z,492.00
2019-04-28T04:52:46.810Z,504.00
2019-04-28T04:53:46.804Z,516.00
2019-04-28T04:54:46.787Z,528.00
2019-04-28T04:55:46.803Z,540.00
2019-04-28T04:56:46.763Z,556.00
2019-04-28T04:57:46.753Z,572.00
2019-04-28T04:58:46.744Z,592.00
2019-04-28T04:59:46.734Z,616.00
2019-04-28T05:00:46.751Z,640.00
2019-04-28T05:01:46.718Z,660.00
2019-04-28T05:02:52.050Z,672.00
2019-04-28T05:03:49.682Z,680.00
2019-04-28T05:04:46.674Z,672.00
2019-04-28T05:05:46.663Z,672.00
2019-04-28T05:06:46.675Z,668.00
2019-04-28T05:07:46.668Z,676.00
2019-04-28T05:08:46.630Z,688.00
2019-04-28T05:09:46.621Z,704.00
2019-04-28T05:10:46.607Z,716.00
2019-04-28T05:11:46.598Z,724.00
2019-04-28T05:12:46.611Z,716.00
2019-04-28T05:13:46.573Z,700.00
2019-04-28T05:14:46.565Z,692.00
2019-04-28T05:15:46.554Z,692.00
2019-04-28T05:16:46.543Z,696.00
2019-04-28T05:17:46.553Z,696.00
2019-04-28T05:18:46.519Z,696.00
2019-04-28T05:19:46.509Z,704.00
2019-04-28T05:20:46.496Z,724.00
2019-04-28T05:21:46.489Z,752.00
2019-04-28T05:22:46.495Z,768.00
2019-04-28T05:23:46.463Z,776.00
2019-04-28T05:24:52.967Z,800.00
2019-04-28T05:25:47.455Z,820.00
2019-04-28T05:26:47.730Z,848.00
2019-04-28T05:27:46.417Z,868.00
2019-04-28T05:28:51.402Z,872.00
2019-04-28T05:29:47.396Z,876.00
2019-04-28T05:30:46.391Z,888.00
2019-04-28T05:31:46.374Z,908.00
2019-04-28T05:32:55.415Z,920.00
2019-04-28T05:33:47.370Z,936.00
2019-04-28T05:34:47.031Z,944.00
2019-04-28T05:35:46.327Z,964.00
2019-04-28T05:36:46.317Z,980.00
2019-04-28T05:37:46.305Z,996.00
2019-04-28T05:38:46.320Z,1008.00
2019-04-28T05:39:46.285Z,1024.00
2019-04-28T05:40:46.272Z,1048.00
2019-04-28T05:41:46.261Z,1072.00
2019-04-28T05:42:46.252Z,1096.00
2019-04-28T05:43:46.259Z,1096.00
2019-04-28T05:44:46.236Z,1096.00
2019-04-28T05:45:46.239Z,1084.00
2019-04-28T05:46:46.205Z,1080.00
2019-04-28T05:47:46.193Z,1092.00
2019-04-28T05:48:46.184Z,1128.00
2019-04-28T05:49:46.172Z,1176.00
2019-04-28T05:50:46.184Z,1216.00
2019-04-28T05:51:46.154Z,1240.00
2019-04-28T05:52:46.138Z,1256.00
2019-04-28T05:53:46.127Z,1280.00
2019-04-28T05:54:46.132Z,1296.00
2019-04-28T05:55:46.131Z,1352.00
2019-04-28T05:56:46.093Z,1424.00
2019-04-28T05:57:46.082Z,1508.00
2019-04-28T05:58:46.071Z,1592.00
2019-04-28T05:59:46.060Z,1648.00
2019-04-28T06:00:46.085Z,1688.00
2019-04-28T06:01:46.053Z,1708.00
2019-04-28T06:02:54.089Z,1716.00
2019-04-28T06:03:47.012Z,1720.00
2019-04-28T06:04:46.003Z,1740.00
2019-04-28T06:05:46.142Z,1800.00
2019-04-28T06:06:45.992Z,1880.00
2019-04-28T06:07:45.971Z,2000.00
2019-04-28T06:08:45.957Z,2240.00
2019-04-28T06:09:45.945Z,2320.00
2019-04-28T06:10:45.958Z,2444.00
2019-04-28T06:11:45.924Z,2608.00
2019-04-28T06:12:45.938Z,2868.00
2019-04-28T06:13:45.905Z,3032.00
2019-04-28T06:14:45.893Z,3208.00
2019-04-28T06:15:45.897Z,3300.00
2019-04-28T06:16:45.868Z,3364.00
2019-04-28T06:17:45.858Z,3432.00
2019-04-28T06:18:45.872Z,3336.00
2019-04-28T06:19:45.838Z,3444.00
2019-04-28T06:20:45.845Z,3536.00
2019-04-28T06:21:45.811Z,3692.00
2019-04-28T06:22:45.800Z,4372.00
2019-04-28T06:23:45.788Z,4640.00
2019-04-28T06:24:45.782Z,4704.00
2019-04-28T06:25:45.795Z,4696.00
2019-04-28T06:26:45.753Z,4696.00
2019-04-28T06:27:45.745Z,4676.00
2019-04-28T06:28:45.732Z,4516.00
2019-04-28T06:29:45.722Z,4168.00
2019-04-28T06:30:45.740Z,3736.00
2019-04-28T06:31:45.698Z,3604.00
2019-04-28T06:32:45.696Z,3552.00
2019-04-28T06:33:45.676Z,3600.00
2019-04-28T06:34:45.665Z,3428.00
2019-04-28T06:35:45.670Z,3436.00
2019-04-28T06:36:45.669Z,3840.00
2019-04-28T06:37:45.630Z,3620.00
2019-04-28T06:38:45.621Z,3944.00
2019-04-28T06:39:47.297Z,3632.00
2019-04-28T06:40:45.614Z,3852.00
2019-04-28T06:41:45.613Z,3836.00
2019-04-28T06:42:45.573Z,3716.00
2019-04-28T06:43:45.616Z,3460.00
2019-04-28T06:44:45.583Z,3132.00
2019-04-28T06:45:45.540Z,2984.00
2019-04-28T06:46:45.529Z,2960.00
2019-04-28T06:47:45.536Z,3052.00
2019-04-28T06:48:45.505Z,3464.00
2019-04-28T06:49:45.520Z,3560.00
2019-04-28T06:50:45.484Z,3212.00
2019-04-28T06:51:45.478Z,3228.00
2019-04-28T06:52:45.463Z,3288.00
2019-04-28T06:53:45.451Z,3328.00
2019-04-28T06:54:45.485Z,3032.00
2019-04-28T06:55:45.445Z,2768.00
2019-04-28T06:56:45.442Z,2852.00
2019-04-28T06:57:45.426Z,3000.00
2019-04-28T06:58:58.146Z,3128.00
2019-04-28T06:59:46.379Z,3196.00
2019-04-28T07:00:45.371Z,3284.00
2019-04-28T07:01:45.377Z,3500.00
2019-04-28T07:02:45.370Z,3576.00
2019-04-28T07:03:45.337Z,3840.00
2019-04-28T07:04:45.326Z,4144.00
2019-04-28T07:05:45.319Z,4416.00
2019-04-28T07:06:45.305Z,4864.00
2019-04-28T07:07:45.321Z,4720.00
2019-04-28T07:08:45.314Z,4236.00
2019-04-28T07:09:45.273Z,4084.00
2019-04-28T07:10:45.269Z,3956.00
2019-04-28T07:11:45.269Z,3952.00
2019-04-28T07:12:45.264Z,4012.00
2019-04-28T07:13:45.222Z,4028.00
2019-04-28T07:14:45.216Z,3948.00
2019-04-28T07:15:45.206Z,3760.00
2019-04-28T07:16:45.189Z,3560.00
2019-04-28T07:17:45.202Z,3644.00
2019-04-28T07:18:45.168Z,4008.00
2019-04-28T07:19:45.158Z,4516.00
2019-04-28T07:20:45.146Z,5056.00
2019-04-28T07:21:45.134Z,5180.00
2019-04-28T07:22:45.143Z,4652.00
2019-04-28T07:23:45.110Z,3912.00
2019-04-28T07:24:45.100Z,3464.00
2019-04-28T07:25:45.103Z,3468.00
2019-04-28T07:26:45.080Z,3596.00
2019-04-28T07:27:45.067Z,3420.00
2019-04-28T07:28:45.086Z,3096.00
2019-04-28T07:29:45.044Z,2848.00
2019-04-28T07:30:45.030Z,2700.00
2019-04-28T07:31:45.019Z,2780.00
2019-04-28T07:32:45.033Z,2936.00
2019-04-28T07:33:45.005Z,2900.00
2019-04-28T07:34:44.987Z,2760.00
2019-04-28T07:35:44.982Z,2668.00
2019-04-28T07:36:44.963Z,2608.00
2019-04-28T07:37:44.979Z,2504.00
2019-04-28T07:38:44.941Z,2432.00
2019-04-28T07:39:44.934Z,2484.00
2019-04-28T07:40:44.921Z,2596.00
2019-04-28T07:41:44.949Z,2824.00
2019-04-28T07:42:44.898Z,3100.00
2019-04-28T07:43:44.902Z,3200.00
2019-04-28T07:44:44.873Z,3072.00
2019-04-28T07:45:44.887Z,2872.00
2019-04-28T07:46:44.850Z,2868.00
2019-04-28T07:47:44.840Z,2940.00
2019-04-28T07:48:44.831Z,2988.00
2019-04-28T07:49:44.841Z,3104.00
2019-04-28T07:50:44.813Z,3120.00
2019-04-28T07:51:44.793Z,3092.00
2019-04-28T07:52:44.805Z,3200.00
2019-04-28T07:53:44.795Z,3384.00
2019-04-28T07:54:44.760Z,3584.00
2019-04-28T07:55:44.747Z,3720.00
2019-04-28T07:56:44.736Z,3632.00
2019-04-28T07:57:44.729Z,3436.00
2019-04-28T07:58:44.740Z,3220.00
2019-04-28T07:59:44.736Z,3000.00
2019-04-28T08:00:44.692Z,2836.00
2019-04-28T08:01:44.682Z,2724.00
2019-04-28T08:02:44.669Z,2704.00
2019-04-28T08:03:49.654Z,2760.00
2019-04-28T08:04:45.670Z,2900.00
2019-04-28T08:05:44.661Z,3040.00
2019-04-28T08:06:44.643Z,3124.00
2019-04-28T08:07:44.615Z,3200.00
2019-04-28T08:08:44.634Z,3328.00
2019-04-28T08:09:44.594Z,3392.00
2019-04-28T08:10:44.578Z,3420.00
2019-04-28T08:11:44.570Z,3492.00
2019-04-28T08:12:44.555Z,3544.00
2019-04-28T08:13:44.567Z,3608.00
2019-04-28T08:14:44.534Z,3668.00
2019-04-28T08:15:44.523Z,3704.00
2019-04-28T08:16:44.533Z,3724.00
2019-04-28T08:17:44.502Z,3744.00
2019-04-28T08:18:44.487Z,3812.00
2019-04-28T08:19:44.479Z,3912.00
2019-04-28T08:20:44.489Z,4008.00
2019-04-28T08:21:44.478Z,4152.00
2019-04-28T08:22:44.446Z,4344.00
2019-04-28T08:23:47.218Z,4564.00
2019-04-28T08:24:44.423Z,4764.00
2019-04-28T08:25:44.440Z,4904.00
2019-04-28T08:26:44.400Z,5096.00
2019-04-28T08:27:44.387Z,5304.00
2019-04-28T08:28:44.400Z,5460.00
2019-04-28T08:29:44.366Z,5508.00
2019-04-28T08:30:44.353Z,5452.00
2019-04-28T08:31:44.369Z,5336.00
2019-04-28T08:32:44.334Z,5220.00
2019-04-28T08:33:44.322Z,5144.00
2019-04-28T08:34:44.323Z,5048.00
2019-04-28T08:35:44.297Z,4968.00
2019-04-28T08:36:44.287Z,4884.00
2019-04-28T08:37:44.294Z,4740.00
2019-04-28T08:38:44.263Z,4524.00
2019-04-28T08:39:44.253Z,4324.00
2019-04-28T08:40:44.270Z,4148.00
2019-04-28T08:41:44.332Z,4068.00
2019-04-28T08:42:44.219Z,4108.00
2019-04-28T08:43:44.208Z,4180.00
2019-04-28T08:44:44.227Z,4160.00
2019-04-28T08:45:44.208Z,4044.00
2019-04-28T08:46:44.191Z,3964.00
2019-04-28T08:47:44.163Z,3936.00
2019-04-28T08:48:44.174Z,3964.00
2019-04-28T08:49:44.283Z,3964.00
2019-04-28T08:50:44.127Z,3904.00
2019-04-28T08:51:44.151Z,3968.00
2019-04-28T08:52:44.107Z,3956.00
2019-04-28T08:53:44.093Z,3816.00
2019-04-28T08:54:44.081Z,3484.00
2019-04-28T08:55:44.073Z,3284.00
2019-04-28T08:56:44.079Z,3164.00
2019-04-28T08:57:44.052Z,3076.00
2019-04-28T08:58:44.059Z,2992.00
2019-04-28T08:59:44.028Z,2868.00
2019-04-28T09:00:44.015Z,2728.00
2019-04-28T09:01:44.002Z,2660.00
2019-04-28T09:02:44.020Z,2652.00
2019-04-28T09:03:43.980Z,2644.00
2019-04-28T09:04:43.969Z,2608.00
2019-04-28T09:05:43.959Z,2624.00
2019-04-28T09:06:43.979Z,2656.00
2019-04-28T09:07:43.941Z,2700.00
2019-04-28T09:08:43.924Z,2780.00
2019-04-28T09:09:43.914Z,2780.00
2019-04-28T09:10:43.901Z,2784.00
2019-04-28T09:11:43.908Z,2792.00
2019-04-28T09:12:43.896Z,2800.00
2019-04-28T09:13:44.211Z,2852.00
2019-04-28T09:14:43.857Z,2980.00
2019-04-28T09:15:43.846Z,3172.00
2019-04-28T09:16:43.859Z,3512.00
2019-04-28T09:17:43.825Z,4080.00
2019-04-28T09:18:43.823Z,4712.00
2019-04-28T09:19:43.799Z,7588.00
2019-04-28T09:20:43.816Z,7164.00
2019-04-28T09:21:43.777Z,5160.00
2019-04-28T09:22:43.791Z,5192.00
2019-04-28T09:23:43.778Z,5480.00
2019-04-28T09:24:43.743Z,5448.00
2019-04-28T09:25:43.777Z,5656.00
2019-04-28T09:26:43.721Z,6320.00
2019-04-28T09:27:43.709Z,6540.00
2019-04-28T09:28:43.698Z,6556.00
2019-04-28T09:29:43.685Z,7656.00
2019-04-28T09:30:43.693Z,8924.00
2019-04-28T09:31:43.688Z,7532.00
2019-04-28T09:32:43.653Z,6144.00
2019-04-28T09:33:45.060Z,6180.00
2019-04-28T09:34:43.631Z,9008.00
2019-04-28T09:35:43.638Z,8880.00
2019-04-28T09:36:43.635Z,8768.00
2019-04-28T09:37:43.597Z,6236.00
2019-04-28T09:38:43.584Z,6500.00
2019-04-28T09:39:43.600Z,8708.00
2019-04-28T09:40:43.562Z,9240.00
2019-04-28T09:41:43.552Z,9236.00
2019-04-28T09:42:43.545Z,9296.00
2019-04-28T09:43:43.529Z,9088.00
2019-04-28T09:44:43.547Z,8608.00
2019-04-28T09:45:43.508Z,8396.00
2019-04-28T09:46:43.495Z,8436.00
2019-04-28T09:47:43.486Z,8508.00
2019-04-28T09:48:43.474Z,8632.00
2019-04-28T09:49:43.520Z,8524.00
2019-04-28T09:50:43.454Z,8552.00
2019-04-28T09:51:43.442Z,8924.00
2019-04-28T09:52:43.428Z,9256.00
2019-04-28T09:53:43.417Z,8960.00
2019-04-28T09:54:43.428Z,7116.00
2019-04-28T09:55:43.416Z,9068.00
2019-04-28T09:56:55.728Z,6840.00
2019-04-28T09:57:44.374Z,8372.00
2019-04-28T09:58:43.359Z,7576.00
2019-04-28T09:59:43.371Z,8468.00
2019-04-28T10:00:43.338Z,8436.00
2019-04-28T10:01:43.328Z,8432.00
2019-04-28T10:02:43.331Z,8352.00
2019-04-28T10:03:43.304Z,8268.00
2019-04-28T10:04:43.343Z,6316.00
2019-04-28T10:05:43.289Z,8424.00
2019-04-28T10:06:43.269Z,8404.00
2019-04-28T10:07:43.281Z,8168.00
2019-04-28T10:08:43.252Z,7852.00
2019-04-28T10:09:43.260Z,7824.00
2019-04-28T10:10:43.225Z,8000.00
2019-04-28T10:11:43.229Z,8100.00
2019-04-28T10:12:43.203Z,7808.00
2019-04-28T10:13:43.195Z,7868.00
2019-04-28T10:14:43.202Z,7900.00
2019-04-28T10:15:43.168Z,7964.00
2019-04-28T10:16:43.158Z,7948.00
2019-04-28T10:17:43.181Z,7888.00
2019-04-28T10:18:43.135Z,7936.00
2019-04-28T10:19:43.130Z,7984.00
2019-04-28T10:20:43.133Z,8008.00
2019-04-28T10:21:43.127Z,7948.00
2019-04-28T10:22:43.088Z,7760.00
2019-04-28T10:23:43.078Z,7764.00
2019-04-28T10:24:43.066Z,8088.00
2019-04-28T10:25:43.057Z,8624.00
2019-04-28T10:26:43.074Z,8720.00
2019-04-28T10:27:43.039Z,8548.00
2019-04-28T10:28:43.027Z,8508.00
2019-04-28T10:29:43.036Z,8328.00
2019-04-28T10:30:43.003Z,8216.00
2019-04-28T10:31:42.992Z,8252.00
2019-04-28T10:32:43.002Z,8272.00
2019-04-28T10:33:42.968Z,8332.00
2019-04-28T10:34:54.305Z,8364.00
2019-04-28T10:35:43.944Z,8404.00
2019-04-28T10:36:42.959Z,8292.00
2019-04-28T10:37:45.510Z,8656.00
2019-04-28T10:38:42.915Z,8900.00
2019-04-28T10:39:42.919Z,9192.00
2019-04-28T10:40:42.895Z,9520.00
2019-04-28T10:41:42.900Z,9740.00
2019-04-28T10:42:42.868Z,9460.00
2019-04-28T10:43:42.890Z,7828.00
2019-04-28T10:44:42.849Z,6044.00
2019-04-28T10:45:42.832Z,6004.00
2019-04-28T10:46:43.005Z,6860.00
2019-04-28T10:47:42.827Z,8808.00
2019-04-28T10:48:42.800Z,8840.00
2019-04-28T10:49:42.789Z,8680.00
2019-04-28T10:50:42.830Z,8584.00
2019-04-28T10:51:42.768Z,8560.00
2019-04-28T10:52:42.782Z,8552.00
2019-04-28T10:53:42.769Z,8548.00
2019-04-28T10:54:42.734Z,8552.00
2019-04-28T10:55:42.726Z,8564.00
2019-04-28T10:56:42.710Z,8484.00
2019-04-28T10:57:42.816Z,8424.00
2019-04-28T10:58:42.691Z,8328.00
2019-04-28T10:59:42.683Z,8244.00
2019-04-28T11:00:42.669Z,8204.00
2019-04-28T11:01:42.656Z,8164.00
2019-04-28T11:02:42.666Z,8184.00
2019-04-28T11:03:42.632Z,8184.00
2019-04-28T11:04:42.620Z,8064.00
2019-04-28T11:05:42.716Z,7876.00
2019-04-28T11:06:42.625Z,7748.00
2019-04-28T11:07:42.588Z,7744.00
2019-04-28T11:08:42.598Z,7748.00
2019-04-28T11:09:42.566Z,7912.00
2019-04-28T11:10:42.579Z,8068.00
2019-04-28T11:11:42.541Z,8064.00
2019-04-28T11:12:42.530Z,8544.00
2019-04-28T11:13:42.519Z,8324.00
2019-04-28T11:14:42.530Z,6264.00
2019-04-28T11:15:42.514Z,5144.00
2019-04-28T11:16:42.489Z,5088.00
2019-04-28T11:17:42.475Z,5156.00
2019-04-28T11:18:51.048Z,5192.00
2019-04-28T11:19:42.451Z,4868.00
2019-04-28T11:20:42.448Z,4724.00
2019-04-28T11:21:42.428Z,4616.00
2019-04-28T11:22:42.419Z,4504.00
2019-04-28T11:23:42.434Z,4440.00
2019-04-28T11:24:42.420Z,4340.00
2019-04-28T11:25:42.388Z,4232.00
2019-04-28T11:26:42.376Z,4120.00
2019-04-28T11:27:42.374Z,4020.00
2019-04-28T11:28:42.356Z,3972.00
2019-04-28T11:29:42.356Z,3948.00
2019-04-28T11:30:42.370Z,3948.00
2019-04-28T11:31:42.317Z,3972.00
2019-04-28T11:32:42.306Z,3996.00
2019-04-28T11:33:42.306Z,3992.00
2019-04-28T11:34:42.298Z,4008.00
2019-04-28T11:35:42.305Z,4044.00
2019-04-28T11:36:42.260Z,4100.00
2019-04-28T11:37:42.252Z,4180.00
2019-04-28T11:38:42.267Z,4220.00
2019-04-28T11:39:42.231Z,4212.00
2019-04-28T11:40:42.236Z,4180.00
2019-04-28T11:41:42.278Z,4148.00
2019-04-28T11:42:42.234Z,4112.00
2019-04-28T11:43:42.199Z,4132.00
2019-04-28T11:44:42.171Z,4200.00
2019-04-28T11:45:42.204Z,4240.00
2019-04-28T11:46:42.182Z,4288.00
2019-04-28T11:47:42.167Z,4352.00
2019-04-28T11:48:42.127Z,4408.00
2019-04-28T11:49:42.134Z,4460.00
2019-04-28T11:50:42.212Z,4536.00
2019-04-28T11:51:42.119Z,4624.00
2019-04-28T11:52:42.120Z,4756.00
2019-04-28T11:53:42.084Z,4912.00
2019-04-28T11:54:42.109Z,5108.00
2019-04-28T11:55:42.085Z,6124.00
2019-04-28T11:56:42.076Z,7560.00
2019-04-28T11:57:42.024Z,6532.00
2019-04-28T11:58:42.031Z,8736.00
2019-04-28T11:59:42.009Z,7604.00
2019-04-28T12:00:41.990Z,6672.00
2019-04-28T12:01:42.005Z,6080.00
2019-04-28T12:02:42.011Z,6136.00
2019-04-28T12:03:42.080Z,7432.00
2019-04-28T12:04:41.995Z,6636.00
2019-04-28T12:05:41.954Z,6732.00
2019-04-28T12:06:41.923Z,8588.00
2019-04-28T12:07:41.937Z,6120.00
2019-04-28T12:08:41.906Z,7512.00
2019-04-28T12:09:42.010Z,5780.00
2019-04-28T12:10:41.879Z,5808.00
2019-04-28T12:11:41.900Z,5476.00
2019-04-28T12:12:41.883Z,5556.00
2019-04-28T12:13:41.873Z,5996.00
2019-04-28T12:14:41.833Z,6444.00
2019-04-28T12:15:41.830Z,8308.00
2019-04-28T12:16:41.834Z,7388.00
2019-04-28T12:17:41.828Z,7500.00
2019-04-28T12:18:41.793Z,7312.00
2019-04-28T12:19:41.779Z,7124.00
2019-04-28T12:20:41.797Z,7100.00
2019-04-28T12:21:41.792Z,7324.00
2019-04-28T12:22:41.760Z,6256.00
2019-04-28T12:23:41.742Z,5976.00
2019-04-28T12:24:41.749Z,5952.00
2019-04-28T12:25:41.716Z,6084.00
2019-04-28T12:26:41.700Z,6256.00
2019-04-28T12:27:41.705Z,6564.00
2019-04-28T12:28:41.704Z,7104.00
2019-04-28T12:29:41.687Z,7372.00
2019-04-28T12:30:41.659Z,7056.00